Time;durP1;ratioP1;P1;durP2;ratioP2;P2;SDS_P1;SDS_P2;PMS_P1;PMS_P2;Temp;Humidity;BMP_temperature;BMP_pressure;BME280_temperature;BME280_humidity;BME280_pressure;Samples;Min_cycle;Max_cycle;Signal;HPM_P1;HPM_P2
2023/04/15 00:00:54;;;;;;;;;;;;;;;13.56;74.94;98967.66;4973510;28;20225;-93
2023/04/15 00:03:19;;;;;;;;;;;;;;;13.16;76.92;98966.50;4991241;28;20417;-92
2023/04/15 00:05:44;;;;;;;;;;;;;;;13.28;77.61;98970.47;4989843;28;19914;-93
2023/04/15 00:08:10;;;;;;;;;;;;;;;13.51;77.94;98982.88;4993248;28;19914;-92
2023/04/15 00:10:35;;;;;;;;;;;;;;;13.50;77.86;98992.63;4993775;28;19929;-92
2023/04/15 00:13:01;;;;;;;;;;;;;;;13.57;77.59;99001.19;4994460;28;19910;-92
2023/04/15 00:15:27;;;;;;;;;;;;;;;13.56;78.12;99007.41;4995272;28;20449;-92
2023/04/15 00:17:52;;;;;;;;;;;;;;;13.36;78.34;99005.50;4993074;28;19918;-92
2023/04/15 00:20:17;;;;;;;;;;;;;;;13.35;77.94;99006.47;4977146;28;19914;-93
2023/04/15 00:22:45;;;;;;;;;;;;;;;13.41;77.40;99006.22;4994421;28;19914;-94
2023/04/15 00:25:10;;;;;;;;;;;;;;;13.46;76.79;99006.06;4995007;28;19922;-93
2023/04/15 00:27:36;;;;;;;;;;;;;;;13.32;77.57;99001.25;5009032;28;19918;-93
2023/04/15 00:30:02;;;;;;;;;;;;;;;13.39;77.24;98986.84;4994886;28;19918;-93
2023/04/15 00:32:28;;;;;;;;;;;;;;;13.39;76.70;98984.22;4994135;28;20418;-93
2023/04/15 00:34:54;;;;;;;;;;;;;;;13.23;77.84;98965.34;4976964;28;20354;-92
2023/04/15 00:37:19;;;;;;;;;;;;;;;13.00;78.55;98961.75;4994604;28;19945;-91
2023/04/15 00:39:44;;;;;;;;;;;;;;;12.93;78.10;98962.94;5009295;28;19917;-92
2023/04/15 00:42:10;;;;;;;;;;;;;;;13.30;76.91;98982.75;4994032;28;19976;-93
2023/04/15 00:44:36;;;;;;;;;;;;;;;13.00;77.16;98985.59;4993987;28;19918;-93
2023/04/15 00:47:03;;;;;;;;;;;;;;;13.16;76.77;98982.38;4976633;28;19917;-92
2023/04/15 00:49:28;;;;;;;;;;;;;;;13.18;75.92;98983.22;4993994;28;20001;-92
2023/04/15 00:51:53;;;;;;;;;;;;;;;13.22;76.43;98987.44;4993111;28;20454;-92
2023/04/15 00:54:19;;;;;;;;;;;;;;;13.01;76.83;98989.97;4994030;28;20000;-93
2023/04/15 00:56:45;;;;;;;;;;;;;;;13.28;75.90;98989.88;4993778;28;20283;-93
2023/04/15 00:59:10;;;;;;;;;;;;;;;13.24;76.26;98983.84;4994698;28;19957;-93
2023/04/15 01:01:37;;;;;;;;;;;;;;;13.14;76.44;98985.09;4994001;28;20320;-92
2023/04/15 01:04:03;;;;;;;;;;;;;;;13.14;75.70;98969.19;4994151;28;19918;-93
2023/04/15 01:06:29;;;;;;;;;;;;;;;12.93;76.42;98976.16;4993605;28;19914;-93
2023/04/15 01:08:54;;;;;;;;;;;;;;;13.01;76.62;98984.69;4993682;28;20387;-92
2023/04/15 01:11:22;;;;;;;;;;;;;;;13.23;75.86;98975.94;4993656;28;19920;-92
2023/04/15 01:13:48;;;;;;;;;;;;;;;13.20;76.32;98987.50;4994163;28;19952;-93
2023/04/15 01:16:15;;;;;;;;;;;;;;;13.23;75.38;98994.50;4993535;28;20379;-92
2023/04/15 01:18:41;;;;;;;;;;;;;;;13.13;75.18;98995.75;4994259;28;19922;-92
2023/04/15 01:21:06;;;;;;;;;;;;;;;13.02;76.26;99004.06;4993424;28;19914;-94
2023/04/15 01:23:32;;;;;;;;;;;;;;;12.81;76.77;98992.47;5008771;28;19957;-94
2023/04/15 01:25:59;;;;;;;;;;;;;;;12.74;77.98;98986.53;4993385;28;19920;-93
2023/04/15 01:28:24;;;;;;;;;;;;;;;12.73;77.17;98995.41;5008328;28;19914;-92
2023/04/15 01:31:04;;;;;;;;;;;;;;;12.71;77.72;98998.09;4994140;28;20002;-93
2023/04/15 01:33:30;;;;;;;;;;;;;;;12.75;77.44;98996.19;4958486;28;19988;-93
2023/04/15 01:35:55;;;;;;;;;;;;;;;12.69;77.30;99009.66;4972608;28;19914;-91
2023/04/15 01:38:21;;;;;;;;;;;;;;;12.83;76.85;99009.16;4973159;28;19996;-91
2023/04/15 01:40:47;;;;;;;;;;;;;;;13.04;75.98;99012.84;4973923;28;19914;-90
2023/04/15 01:43:12;;;;;;;;;;;;;;;13.12;75.48;99016.06;4973480;28;19921;-90
2023/04/15 01:45:37;;;;;;;;;;;;;;;13.17;75.03;99015.91;4973604;28;19910;-91
2023/04/15 01:48:03;;;;;;;;;;;;;;;13.08;75.48;99017.97;4973354;28;20046;-90
2023/04/15 01:50:28;;;;;;;;;;;;;;;13.10;75.28;99014.38;4973846;28;19921;-90
2023/04/15 01:52:53;;;;;;;;;;;;;;;12.48;78.34;99000.66;4973345;28;19920;-91
2023/04/15 01:55:19;;;;;;;;;;;;;;;12.69;77.93;99007.84;4973426;28;19914;-92
2023/04/15 01:57:45;;;;;;;;;;;;;;;12.75;77.99;99012.06;4972592;28;20005;-91
2023/04/15 02:00:10;;;;;;;;;;;;;;;12.88;77.55;99021.31;4956132;28;19913;-92
2023/04/15 02:02:36;;;;;;;;;;;;;;;12.86;77.36;99025.78;4954684;28;19918;-91
2023/04/15 02:05:03;;;;;;;;;;;;;;;12.83;77.68;99025.91;4973020;28;19940;-89
2023/04/15 02:07:31;;;;;;;;;;;;;;;12.75;77.75;99035.03;4971882;28;20339;-91
2023/04/15 02:09:56;;;;;;;;;;;;;;;12.64;78.56;99035.41;4973029;28;19925;-89
2023/04/15 02:12:21;;;;;;;;;;;;;;;12.32;79.73;99040.81;4971935;28;19914;-91
2023/04/15 02:14:47;;;;;;;;;;;;;;;12.15;79.39;99049.31;4971468;28;19924;-91
2023/04/15 02:17:12;;;;;;;;;;;;;;;12.29;78.52;99042.72;4973455;28;19992;-91
2023/04/15 02:19:39;;;;;;;;;;;;;;;12.19;78.96;99044.81;4973409;28;19913;-91
2023/04/15 02:22:06;;;;;;;;;;;;;;;11.77;79.42;99042.53;4972764;28;20013;-91
2023/04/15 02:24:33;;;;;;;;;;;;;;;11.60;80.42;99035.09;4972634;28;19937;-93
2023/04/15 02:26:58;;;;;;;;;;;;;;;11.55;80.42;99037.03;4955758;28;20312;-93
2023/04/15 02:29:25;;;;;;;;;;;;;;;11.62;79.85;99041.22;4972690;28;19921;-94
2023/04/15 02:31:50;;;;;;;;;;;;;;;11.74;78.39;99039.97;4954711;28;19913;-91
2023/04/15 02:34:15;;;;;;;;;;;;;;;11.47;78.22;99001.13;4973156;28;19910;-91
2023/04/15 02:36:41;;;;;;;;;;;;;;;11.80;77.75;99038.03;4955144;28;19914;-93
2023/04/15 02:39:06;;;;;;;;;;;;;;;11.96;77.45;99048.16;4971991;28;19941;-93
2023/04/15 02:41:31;;;;;;;;;;;;;;;11.85;77.06;99045.81;4972944;28;20421;-92
2023/04/15 02:43:57;;;;;;;;;;;;;;;11.91;76.74;99052.69;4972446;28;19921;-92
2023/04/15 02:46:22;;;;;;;;;;;;;;;11.86;76.36;99051.97;4971898;28;19914;-91
2023/04/15 02:48:48;;;;;;;;;;;;;;;11.84;76.46;99046.72;4971103;28;19918;-92
2023/04/15 02:51:15;;;;;;;;;;;;;;;12.24;74.01;99056.09;4955136;28;19914;-92
2023/04/15 02:53:41;;;;;;;;;;;;;;;12.03;74.01;99060.25;4971627;28;19917;-94
2023/04/15 02:56:07;;;;;;;;;;;;;;;12.20;73.68;99064.16;4954832;28;19914;-92
2023/04/15 02:58:33;;;;;;;;;;;;;;;12.10;72.97;99053.88;4972410;28;20001;-93
2023/04/15 03:00:59;;;;;;;;;;;;;;;12.19;73.07;99039.53;4955428;28;20392;-91
2023/04/15 03:03:25;;;;;;;;;;;;;;;12.26;72.82;99032.25;4972785;28;19921;-93
2023/04/15 03:05:50;;;;;;;;;;;;;;;12.26;72.97;99038.38;4972757;28;19914;-94
2023/04/15 03:08:16;;;;;;;;;;;;;;;12.12;73.59;99041.47;4954762;28;20316;-93
2023/04/15 03:10:42;;;;;;;;;;;;;;;12.08;73.77;99046.91;4955244;28;19914;-93
2023/04/15 03:13:07;;;;;;;;;;;;;;;12.11;73.22;99057.38;4938782;28;20376;-92
2023/04/15 03:15:32;;;;;;;;;;;;;;;11.98;73.61;99054.25;4954533;28;19914;-92
2023/04/15 03:17:58;;;;;;;;;;;;;;;11.79;74.80;99060.06;4972013;28;19918;-92
2023/04/15 03:20:25;;;;;;;;;;;;;;;11.88;73.71;99061.59;4954083;28;19921;-92
2023/04/15 03:22:50;;;;;;;;;;;;;;;11.64;74.32;99060.53;4954883;28;19914;-92
2023/04/15 03:25:16;;;;;;;;;;;;;;;11.83;73.01;99066.13;4954781;28;19940;-92
2023/04/15 03:27:41;;;;;;;;;;;;;;;11.78;72.65;99075.97;4972109;28;20308;-91
2023/04/15 03:30:07;;;;;;;;;;;;;;;11.91;71.47;99087.94;4970959;28;19914;-91
2023/04/15 03:32:33;;;;;;;;;;;;;;;12.06;71.42;99085.75;4971337;28;20013;-91
2023/04/15 03:34:58;;;;;;;;;;;;;;;12.32;70.53;99099.00;4971614;28;20434;-92
2023/04/15 03:37:24;;;;;;;;;;;;;;;12.38;69.92;99103.25;4971275;28;20365;-91
2023/04/15 03:39:49;;;;;;;;;;;;;;;12.20;70.21;99061.53;4971743;28;20368;-92
2023/04/15 03:42:15;;;;;;;;;;;;;;;12.52;69.60;99116.91;4973201;28;19986;-92
2023/04/15 03:44:41;;;;;;;;;;;;;;;12.42;70.37;99127.81;4976117;28;19965;-92
2023/04/15 03:47:06;;;;;;;;;;;;;;;12.52;71.01;99129.25;4958117;28;19921;-92
2023/04/15 03:49:31;;;;;;;;;;;;;;;12.57;70.21;99123.81;4974405;28;19966;-92
2023/04/15 03:51:57;;;;;;;;;;;;;;;12.49;70.46;99124.06;4957749;28;20380;-92
2023/04/15 03:54:23;;;;;;;;;;;;;;;12.45;69.94;99135.66;4975739;28;20008;-93
2023/04/15 03:56:48;;;;;;;;;;;;;;;12.04;70.59;99136.03;4975265;28;19938;-92
2023/04/15 03:59:14;;;;;;;;;;;;;;;11.76;70.20;99135.94;4975481;28;19918;-93
2023/04/15 04:01:40;;;;;;;;;;;;;;;11.52;70.45;99137.50;4957568;28;19917;-92
2023/04/15 04:04:05;;;;;;;;;;;;;;;11.41;70.61;99129.88;4958055;28;19914;-91
2023/04/15 04:06:31;;;;;;;;;;;;;;;11.19;71.19;99125.16;4975663;28;19997;-93
2023/04/15 04:08:56;;;;;;;;;;;;;;;11.06;71.30;99126.38;4990217;28;19921;-93
2023/04/15 04:11:22;;;;;;;;;;;;;;;11.16;71.42;99143.72;4975312;28;19918;-93
2023/04/15 04:13:47;;;;;;;;;;;;;;;11.19;71.23;99146.28;4990082;28;20158;-91
2023/04/15 04:16:13;;;;;;;;;;;;;;;11.28;71.26;99143.41;4975034;28;19960;-91
2023/04/15 04:18:39;;;;;;;;;;;;;;;11.25;70.86;99146.13;4956950;28;20331;-89
2023/04/15 04:21:04;;;;;;;;;;;;;;;11.26;71.01;99152.25;4974720;28;19914;-90
2023/04/15 04:23:30;;;;;;;;;;;;;;;11.02;71.13;99148.50;4975003;28;20394;-90
2023/04/15 04:25:55;;;;;;;;;;;;;;;11.32;71.09;99148.59;4956918;28;20316;-90
2023/04/15 04:28:21;;;;;;;;;;;;;;;11.62;69.75;99147.75;4974889;28;19961;-90
2023/04/15 04:30:48;;;;;;;;;;;;;;;11.72;69.16;99144.84;4989517;28;20000;-91
2023/04/15 04:33:13;;;;;;;;;;;;;;;11.63;68.94;99159.19;4973984;28;19914;-89
2023/04/15 04:35:38;;;;;;;;;;;;;;;11.61;69.34;99169.78;4956684;28;20021;-90
2023/04/15 04:38:04;;;;;;;;;;;;;;;11.15;70.44;99167.50;4974852;28;20407;-90
2023/04/15 04:40:30;;;;;;;;;;;;;;;10.86;71.49;99170.00;4973888;28;20008;-91
2023/04/15 04:42:56;;;;;;;;;;;;;;;10.60;72.60;99172.38;4974855;28;20417;-91
2023/04/15 04:45:21;;;;;;;;;;;;;;;10.51;72.00;99169.06;4956850;28;19969;-89
2023/04/15 04:47:47;;;;;;;;;;;;;;;10.78;71.73;99174.56;4974244;28;19918;-90
2023/04/15 04:50:12;;;;;;;;;;;;;;;10.96;71.39;99178.53;4988706;28;19914;-90
2023/04/15 04:52:37;;;;;;;;;;;;;;;11.00;70.78;99180.22;4974225;28;20300;-90
2023/04/15 04:55:03;;;;;;;;;;;;;;;10.96;71.28;99177.69;4974181;28;20524;-91
2023/04/15 04:57:31;;;;;;;;;;;;;;;11.01;72.37;99175.78;4972904;28;20415;-90
2023/04/15 04:59:56;;;;;;;;;;;;;;;11.08;71.49;99180.00;4974443;28;19925;-89
2023/04/15 05:02:22;;;;;;;;;;;;;;;11.31;70.60;99175.91;4973827;28;19914;-90
2023/04/15 05:04:48;;;;;;;;;;;;;;;11.43;70.55;99181.75;4974156;28;19913;-89
2023/04/15 05:07:14;;;;;;;;;;;;;;;11.14;70.51;99176.34;4974580;28;19918;-87
2023/04/15 05:09:40;;;;;;;;;;;;;;;11.38;69.43;99172.19;4973788;28;20010;-89
2023/04/15 05:12:05;;;;;;;;;;;;;;;11.60;68.17;99173.34;4974743;28;19914;-89
2023/04/15 05:14:31;;;;;;;;;;;;;;;11.68;67.72;99166.97;4974082;28;20359;-88
2023/04/15 05:16:56;;;;;;;;;;;;;;;11.73;68.22;99171.22;4983042;28;19924;-87
2023/04/15 05:19:21;;;;;;;;;;;;;;;11.93;66.81;99140.78;5000372;28;19914;-88
2023/04/15 05:21:47;;;;;;;;;;;;;;;12.20;66.60;99168.16;4999891;28;19914;-88
2023/04/15 05:24:12;;;;;;;;;;;;;;;12.42;66.69;99165.72;5000914;28;19929;-87
2023/04/15 05:26:37;;;;;;;;;;;;;;;12.34;66.57;99162.44;5000173;28;19914;-88
2023/04/15 05:29:03;;;;;;;;;;;;;;;12.58;66.22;99168.75;4996832;28;19949;-87
2023/04/15 05:31:28;;;;;;;;;;;;;;;12.54;67.14;99175.03;4993336;28;19917;-88
2023/04/15 05:33:53;;;;;;;;;;;;;;;12.59;68.22;99175.78;4993128;28;19921;-87
2023/04/15 05:36:18;;;;;;;;;;;;;;;12.66;67.12;99179.09;4993155;28;19920;-88
2023/04/15 05:38:44;;;;;;;;;;;;;;;12.96;68.04;99193.13;4992881;28;19914;-88
2023/04/15 05:41:10;;;;;;;;;;;;;;;13.47;67.58;99186.16;4993368;28;19913;-88
2023/04/15 05:43:35;;;;;;;;;;;;;;;13.26;67.16;99199.16;4993249;28;19924;-87
2023/04/15 05:46:00;;;;;;;;;;;;;;;13.02;67.71;99203.53;4992352;28;19960;-87
2023/04/15 05:48:26;;;;;;;;;;;;;;;13.45;66.91;99200.38;4992811;28;19945;-89
2023/04/15 05:50:51;;;;;;;;;;;;;;;13.86;65.83;99201.56;4993133;28;20076;-88
2023/04/15 05:53:16;;;;;;;;;;;;;;;14.31;64.04;99213.16;4993103;28;20459;-89
2023/04/15 05:55:42;;;;;;;;;;;;;;;14.14;65.14;99216.44;4992926;28;20015;-88
2023/04/15 05:58:07;;;;;;;;;;;;;;;14.32;65.49;99223.72;4993056;28;19920;-88
2023/04/15 06:00:32;;;;;;;;;;;;;;;14.65;63.24;99233.13;4992457;28;19967;-88
2023/04/15 06:02:58;;;;;;;;;;;;;;;14.49;64.63;99238.13;4992933;28;19917;-89
2023/04/15 06:05:23;;;;;;;;;;;;;;;14.67;64.44;99247.19;5006444;28;20280;-92
2023/04/15 06:07:49;;;;;;;;;;;;;;;15.01;62.32;99241.44;4992372;28;19921;-90
2023/04/15 06:10:14;;;;;;;;;;;;;;;15.32;61.34;99247.25;4991346;28;19971;-90
2023/04/15 06:12:40;;;;;;;;;;;;;;;15.74;60.78;99246.38;4993034;28;19944;-90
2023/04/15 06:15:05;;;;;;;;;;;;;;;15.66;59.90;99254.69;4992834;28;20297;-89
2023/04/15 06:17:31;;;;;;;;;;;;;;;16.26;59.27;99254.72;4992458;28;19922;-92
2023/04/15 06:19:56;;;;;;;;;;;;;;;15.90;58.79;99254.59;4992752;28;19914;-90
2023/04/15 06:22:22;;;;;;;;;;;;;;;16.60;57.99;99246.97;4992226;28;20269;-91
2023/04/15 06:24:49;;;;;;;;;;;;;;;16.76;56.80;99248.00;4992716;28;19937;-91
2023/04/15 06:27:15;;;;;;;;;;;;;;;16.87;57.16;99260.84;4992350;28;19920;-92
2023/04/15 06:29:40;;;;;;;;;;;;;;;16.76;57.74;99256.00;4992007;28;19913;-94
2023/04/15 06:32:06;;;;;;;;;;;;;;;17.17;56.36;99262.94;5006876;28;20029;-91
2023/04/15 06:34:31;;;;;;;;;;;;;;;17.33;57.57;99263.03;4991682;28;19909;-91
2023/04/15 06:37:33;;;;;;;;;;;;;;;;;;;;;
2023/04/15 06:39:59;;;;;;;;;;;;;;;17.57;54.99;99266.28;4912299;29;19915;-92
2023/04/15 06:42:24;;;;;;;;;;;;;;;17.81;55.40;99265.97;4897514;29;20006;-92
2023/04/15 06:44:50;;;;;;;;;;;;;;;18.30;54.15;99276.75;4913124;29;19993;-94
2023/04/15 06:47:15;;;;;;;;;;;;;;;18.74;52.98;99270.81;4911912;29;20066;-92
2023/04/15 06:49:41;;;;;;;;;;;;;;;18.50;53.32;99270.34;4897106;29;19925;-93
2023/04/15 06:52:07;;;;;;;;;;;;;;;18.55;53.55;99267.44;4897247;29;20025;-93
2023/04/15 06:54:32;;;;;;;;;;;;;;;18.90;52.96;99267.31;4897048;29;20034;-93
2023/04/15 06:56:58;;;;;;;;;;;;;;;19.19;51.41;99264.81;4913334;29;19947;-92
2023/04/15 06:59:24;;;;;;;;;;;;;;;19.70;49.80;99265.38;4896600;29;20448;-93
2023/04/15 07:01:49;;;;;;;;;;;;;;;19.67;51.02;99263.75;4897088;29;19919;-93
2023/04/15 07:04:14;;;;;;;;;;;;;;;19.77;51.27;99263.22;4896658;29;20010;-93
2023/04/15 07:06:40;;;;;;;;;;;;;;;20.04;49.64;99263.38;4896739;29;19936;-93
2023/04/15 07:09:06;;;;;;;;;;;;;;;20.22;47.80;99258.72;4896897;29;20389;-92
2023/04/15 07:11:31;;;;;;;;;;;;;;;20.16;49.54;99259.97;4896737;29;20010;-93
2023/04/15 07:13:57;;;;;;;;;;;;;;;20.75;47.80;99249.16;4896676;29;20103;-94
2023/04/15 07:16:22;;;;;;;;;;;;;;;20.54;48.34;99256.72;4923900;28;19936;-93
2023/04/15 07:18:47;;;;;;;;;;;;;;;21.10;48.46;99258.53;5006744;28;19957;-93
2023/04/15 07:21:13;;;;;;;;;;;;;;;20.47;47.49;99262.56;5006320;28;19917;-92
2023/04/15 07:23:38;;;;;;;;;;;;;;;20.50;47.23;99257.84;5006238;28;19914;-92
2023/04/15 07:26:04;;;;;;;;;;;;;;;20.54;47.54;99259.41;5006429;28;20431;-92
2023/04/15 07:28:30;;;;;;;;;;;;;;;20.45;47.54;99251.06;5005819;28;20403;-92
2023/04/15 07:30:58;;;;;;;;;;;;;;;20.75;48.00;99259.00;5006622;28;19999;-93
2023/04/15 07:33:24;;;;;;;;;;;;;;;21.11;48.52;99257.56;5006788;28;20471;-94
2023/04/15 07:35:49;;;;;;;;;;;;;;;20.90;49.17;99267.91;5006211;28;20007;-94
2023/04/15 07:38:15;;;;;;;;;;;;;;;20.88;47.62;99262.63;5006763;28;19913;-93
2023/04/15 07:40:41;;;;;;;;;;;;;;;21.15;44.97;99259.09;4991293;28;19917;-91
2023/04/15 07:43:07;;;;;;;;;;;;;;;21.25;45.49;99259.34;4989999;28;19922;-91
2023/04/15 07:45:34;;;;;;;;;;;;;;;21.22;43.10;99251.50;4990604;28;19914;-93
2023/04/15 07:48:00;;;;;;;;;;;;;;;20.99;42.68;99261.06;4990666;28;19914;-93
2023/04/15 07:50:25;;;;;;;;;;;;;;;20.07;43.33;99265.88;4973227;28;19944;-92
2023/04/15 07:52:51;;;;;;;;;;;;;;;20.47;45.89;99259.88;4990278;28;20375;-94
2023/04/15 07:55:20;;;;;;;;;;;;;;;20.61;44.96;99256.34;5005592;28;19918;-93
2023/04/15 07:57:46;;;;;;;;;;;;;;;21.31;45.99;99260.78;5004807;28;20402;-92
2023/04/15 08:00:12;;;;;;;;;;;;;;;21.23;43.34;99261.28;4990584;28;20372;-90
2023/04/15 08:02:37;;;;;;;;;;;;;;;20.96;43.09;99259.47;5004842;28;20351;-91
2023/04/15 08:05:03;;;;;;;;;;;;;;;21.78;39.91;99270.16;4990180;28;19964;-89
2023/04/15 08:07:30;;;;;;;;;;;;;;;21.49;40.07;99266.72;4988618;28;19914;-89
2023/04/15 08:09:56;;;;;;;;;;;;;;;21.29;43.57;99261.72;4989799;28;19914;-90
2023/04/15 08:12:22;;;;;;;;;;;;;;;21.50;41.44;99263.13;4989827;28;19913;-91
2023/04/15 08:14:49;;;;;;;;;;;;;;;21.51;41.11;99263.00;4990342;28;20330;-92
2023/04/15 08:17:14;;;;;;;;;;;;;;;21.48;42.65;99251.59;4990454;28;19964;-93
2023/04/15 08:19:41;;;;;;;;;;;;;;;21.84;40.90;99250.09;4971719;28;19917;-92
2023/04/15 08:22:06;;;;;;;;;;;;;;;22.04;42.74;99248.72;4991002;28;19914;-92
2023/04/15 08:24:33;;;;;;;;;;;;;;;21.43;43.52;99257.28;4988585;28;20343;-92
2023/04/15 08:26:59;;;;;;;;;;;;;;;20.74;45.52;99254.59;4990297;28;20024;-90
2023/04/15 08:29:26;;;;;;;;;;;;;;;20.66;45.02;99254.25;4992592;28;20016;-93
2023/04/15 08:31:52;;;;;;;;;;;;;;;20.67;46.42;99248.78;4976296;28;19914;-93
2023/04/15 08:34:18;;;;;;;;;;;;;;;21.17;46.16;99256.31;5008975;28;19968;-93
2023/04/15 08:36:43;;;;;;;;;;;;;;;21.01;44.35;99253.81;4993524;28;19917;-93
2023/04/15 08:39:08;;;;;;;;;;;;;;;21.23;44.18;99251.41;4993898;28;20368;-91
2023/04/15 08:41:50;;;;;;;;;;;;;;;20.66;43.72;99248.88;4991820;28;19920;-93
2023/04/15 08:44:16;;;;;;;;;;;;;;;20.90;43.25;99246.47;4993469;28;19914;-93
2023/04/15 08:46:42;;;;;;;;;;;;;;;21.19;42.43;99249.03;4992474;28;19968;-93
2023/04/15 08:49:13;;;;;;;;;;;;;;;21.23;43.68;99259.44;5008375;28;20212;-94
2023/04/15 08:51:40;;;;;;;;;;;;;;;21.42;43.46;99259.09;4994176;28;19964;-95
2023/04/15 08:54:06;;;;;;;;;;;;;;;21.64;42.81;99255.88;4993328;28;19914;-92
2023/04/15 08:56:31;;;;;;;;;;;;;;;21.50;41.87;99261.28;4993851;28;19949;-90
2023/04/15 08:58:58;;;;;;;;;;;;;;;21.34;41.73;99257.91;5008861;28;19956;-91
2023/04/15 09:01:23;;;;;;;;;;;;;;;21.60;41.10;99256.19;4993324;28;20012;-88
2023/04/15 09:03:53;;;;;;;;;;;;;;;21.20;41.44;99240.03;4993719;28;20368;-93
2023/04/15 09:06:19;;;;;;;;;;;;;;;21.35;42.91;99255.09;5008366;28;19917;-92
2023/04/15 09:08:45;;;;;;;;;;;;;;;21.89;42.34;99250.63;4993383;28;20008;-91
2023/04/15 09:11:11;;;;;;;;;;;;;;;21.49;41.65;99258.66;4993548;28;19941;-94
2023/04/15 09:13:37;;;;;;;;;;;;;;;21.12;42.70;99253.94;4992858;28;19917;-93
2023/04/15 09:16:04;;;;;;;;;;;;;;;21.08;42.19;99253.28;5008790;28;19918;-94
2023/04/15 09:18:30;;;;;;;;;;;;;;;20.68;42.52;99249.63;5008494;28;19938;-94
2023/04/15 09:21:04;;;;;;;;;;;;;;;20.74;42.17;99247.44;4976317;28;19914;-94
2023/04/15 09:23:30;;;;;;;;;;;;;;;20.85;41.76;99244.06;5008223;28;19913;-94
2023/04/15 09:25:56;;;;;;;;;;;;;;;20.97;41.17;99238.88;4993551;28;20376;-93
2023/04/15 09:28:27;;;;;;;;;;;;;;;21.08;41.31;99234.50;4993020;28;20019;-92
2023/04/15 09:30:56;;;;;;;;;;;;;;;21.21;41.70;99239.06;4993462;28;19957;-93
2023/04/15 09:33:21;;;;;;;;;;;;;;;21.12;41.80;99227.13;5008164;28;19913;-93
2023/04/15 09:35:57;;;;;;;;;;;;;;;20.61;43.08;99230.38;4993216;28;20287;-94
2023/04/15 09:38:23;;;;;;;;;;;;;;;20.79;43.46;99222.16;5008390;28;20406;-91
2023/04/15 09:40:48;;;;;;;;;;;;;;;20.43;44.21;99221.69;4992441;28;19917;-89
2023/04/15 09:43:15;;;;;;;;;;;;;;;20.73;41.51;99234.16;4993178;28;19914;-92
2023/04/15 09:45:46;;;;;;;;;;;;;;;20.88;41.06;99225.13;4991892;28;19919;-93
2023/04/15 09:48:16;;;;;;;;;;;;;;;21.38;41.03;99221.84;4992185;28;19921;-94
2023/04/15 09:50:42;;;;;;;;;;;;;;;21.67;43.18;99214.50;5008242;28;20372;-91
2023/04/15 09:53:15;;;;;;;;;;;;;;;21.27;41.98;99217.19;4991742;28;19914;-93
2023/04/15 09:55:45;;;;;;;;;;;;;;;21.53;39.98;99212.78;5007991;28;19913;-94
2023/04/15 09:58:18;;;;;;;;;;;;;;;21.11;39.78;99220.03;5008054;28;20008;-92
2023/04/15 10:00:45;;;;;;;;;;;;;;;21.08;41.85;99214.88;5007501;28;20067;-94
2023/04/15 10:03:11;;;;;;;;;;;;;;;20.53;45.06;99212.13;4975158;28;19913;-91
2023/04/15 10:05:36;;;;;;;;;;;;;;;20.92;44.37;99212.34;4992780;28;19913;-92
2023/04/15 10:08:03;;;;;;;;;;;;;;;20.77;42.47;99206.16;4974540;28;19935;-91
2023/04/15 10:10:28;;;;;;;;;;;;;;;20.80;41.35;99211.31;4991533;28;20361;-90
2023/04/15 10:12:55;;;;;;;;;;;;;;;20.84;41.14;99199.47;4992003;28;20012;-91
2023/04/15 10:15:21;;;;;;;;;;;;;;;21.17;39.36;99198.19;4992327;28;19921;-90
2023/04/15 10:17:47;;;;;;;;;;;;;;;21.03;43.32;99190.19;4992831;28;19925;-91
2023/04/15 10:20:13;;;;;;;;;;;;;;;20.80;47.07;99189.88;4990873;28;19914;-91
2023/04/15 10:22:40;;;;;;;;;;;;;;;20.59;46.99;99186.78;4992243;28;20003;-91
2023/04/15 10:25:06;;;;;;;;;;;;;;;21.16;44.95;99185.72;4991978;28;20016;-88
2023/04/15 10:27:32;;;;;;;;;;;;;;;21.00;43.86;99175.16;4992205;28;19913;-90
2023/04/15 10:30:02;;;;;;;;;;;;;;;20.93;45.11;99171.19;4992415;28;19944;-90
2023/04/15 10:32:28;;;;;;;;;;;;;;;21.14;43.90;99178.75;5007366;28;19964;-88
2023/04/15 10:34:54;;;;;;;;;;;;;;;21.04;44.05;99170.47;4991845;28;19913;-89
2023/04/15 10:37:32;;;;;;;;;;;;;;;21.14;44.01;99157.31;4992279;28;19920;-89
2023/04/15 10:39:57;;;;;;;;;;;;;;;21.20;45.37;99167.63;4953445;28;19964;-91
2023/04/15 10:42:22;;;;;;;;;;;;;;;21.18;43.54;99159.69;4972800;28;20343;-89
2023/04/15 10:44:50;;;;;;;;;;;;;;;21.20;42.79;99157.75;4971422;28;19914;-88
2023/04/15 10:47:20;;;;;;;;;;;;;;;21.38;44.12;99152.97;4972298;28;19917;-89
2023/04/15 10:49:46;;;;;;;;;;;;;;;21.42;45.16;99149.09;4971956;28;19914;-90
2023/04/15 10:52:13;;;;;;;;;;;;;;;21.20;45.24;99156.91;4971914;28;19953;-89
2023/04/15 10:54:38;;;;;;;;;;;;;;;20.96;45.41;99154.91;4954724;28;20402;-88
2023/04/15 10:57:04;;;;;;;;;;;;;;;20.87;46.82;99155.53;4972141;28;19914;-90
2023/04/15 10:59:37;;;;;;;;;;;;;;;20.78;46.93;99150.75;4971215;28;20299;-88
2023/04/15 11:02:02;;;;;;;;;;;;;;;20.63;45.83;99156.13;4971689;28;19922;-89
2023/04/15 11:04:48;;;;;;;;;;;;;;;20.71;45.27;99150.28;4972316;28;20351;-88
2023/04/15 11:07:13;;;;;;;;;;;;;;;20.67;44.23;99143.44;4961036;28;19921;-86
2023/04/15 11:09:38;;;;;;;;;;;;;;;20.39;47.08;99140.69;4972117;28;19914;-88
2023/04/15 11:12:08;;;;;;;;;;;;;;;20.85;44.82;99139.53;4972278;28;19917;-87
2023/04/15 11:14:38;;;;;;;;;;;;;;;20.97;47.39;99142.34;4972331;28;19921;-91
2023/04/15 11:17:04;;;;;;;;;;;;;;;20.82;45.44;99133.50;4971560;28;19928;-92
2023/04/15 11:19:37;;;;;;;;;;;;;;;21.15;44.35;99129.50;4971913;28;19924;-90
2023/04/15 11:22:06;;;;;;;;;;;;;;;20.91;44.66;99144.50;4971531;28;20028;-87
2023/04/15 11:24:32;;;;;;;;;;;;;;;21.26;42.73;99138.56;4971617;28;19918;-89
2023/04/15 11:26:58;;;;;;;;;;;;;;;21.39;44.42;99125.16;4971126;28;20011;-90
2023/04/15 11:29:27;;;;;;;;;;;;;;;21.52;42.71;99122.53;4971434;28;19933;-89
2023/04/15 11:32:01;;;;;;;;;;;;;;;21.33;42.43;99124.72;4970937;28;19946;-93
2023/04/15 11:34:26;;;;;;;;;;;;;;;20.89;43.25;99127.63;4953927;28;19918;-92
2023/04/15 11:36:55;;;;;;;;;;;;;;;21.19;42.42;99113.09;4971112;28;19918;-91
2023/04/15 11:39:21;;;;;;;;;;;;;;;21.56;42.94;99115.13;4971232;28;19953;-88
2023/04/15 11:41:47;;;;;;;;;;;;;;;21.64;42.33;99112.75;4969495;28;19968;-90
2023/04/15 11:44:16;;;;;;;;;;;;;;;21.44;43.13;99114.09;4971757;28;19918;-90
2023/04/15 11:46:42;;;;;;;;;;;;;;;21.34;44.07;99111.22;4971598;28;19914;-90
2023/04/15 11:49:07;;;;;;;;;;;;;;;21.43;43.75;99109.72;4970867;28;19918;-88
2023/04/15 11:51:33;;;;;;;;;;;;;;;21.80;41.53;99099.97;4970990;28;19921;-89
2023/04/15 11:53:59;;;;;;;;;;;;;;;21.31;43.46;99105.22;4971583;28;19914;-92
2023/04/15 11:56:25;;;;;;;;;;;;;;;21.29;43.79;99106.16;4972037;28;20575;-89
2023/04/15 11:58:51;;;;;;;;;;;;;;;21.43;44.80;99099.84;4971215;28;19964;-93
2023/04/15 12:01:20;;;;;;;;;;;;;;;21.46;43.14;99086.22;4972033;28;19937;-93
2023/04/15 12:03:46;;;;;;;;;;;;;;;21.89;41.68;99086.84;4971600;28;19914;-91
2023/04/15 12:06:15;;;;;;;;;;;;;;;21.42;43.27;99081.16;4974261;28;19972;-89
2023/04/15 12:08:47;;;;;;;;;;;;;;;21.11;45.56;99078.78;4957116;28;19914;-92
2023/04/15 12:11:13;;;;;;;;;;;;;;;20.69;46.98;99078.03;4957414;28;19969;-90
2023/04/15 12:13:42;;;;;;;;;;;;;;;20.73;47.55;99081.41;4973319;28;19949;-91
2023/04/15 12:16:08;;;;;;;;;;;;;;;21.04;46.57;99074.81;4974792;28;19973;-91
2023/04/15 12:18:33;;;;;;;;;;;;;;;21.40;46.26;99077.75;4974677;28;19969;-92
2023/04/15 12:21:08;;;;;;;;;;;;;;;21.36;45.16;99065.50;4974871;28;19914;-89
2023/04/15 12:23:36;;;;;;;;;;;;;;;21.05;47.42;99064.94;4974976;28;19910;-95
2023/04/15 12:26:04;;;;;;;;;;;;;;;21.20;46.84;99079.97;4973685;28;19918;-90
2023/04/15 12:28:29;;;;;;;;;;;;;;;21.36;46.80;99076.22;4974812;28;19916;-89
2023/04/15 12:30:55;;;;;;;;;;;;;;;21.49;47.14;99070.84;4987264;28;19997;-88
2023/04/15 12:33:23;;;;;;;;;;;;;;;21.38;46.33;99066.25;4993863;28;19914;-91
2023/04/15 12:35:48;;;;;;;;;;;;;;;20.93;48.92;99069.34;4976516;28;19920;-91
2023/04/15 12:38:14;;;;;;;;;;;;;;;20.71;48.53;99072.56;4993978;28;19918;-92
2023/04/15 12:40:39;;;;;;;;;;;;;;;20.84;48.39;99076.16;4975914;28;19913;-88
2023/04/15 12:43:05;;;;;;;;;;;;;;;20.70;50.07;99073.56;4993845;28;19924;-91